createdAt,value
2022-11-29T07:50:12.128Z,0.40
2022-11-29T08:07:00.928Z,1.01
2022-11-29T08:09:32.339Z,1.04
2022-11-29T08:12:00.529Z,1.13
2022-11-29T08:14:31.849Z,1.17
2022-11-29T08:16:59.623Z,1.20
2022-11-29T08:19:27.789Z,1.21
2022-11-29T08:21:55.248Z,1.14
2022-11-29T08:24:22.996Z,1.26
2022-11-29T08:26:50.474Z,0.85
2022-11-29T08:29:19.158Z,0.86
2022-11-29T08:31:53.244Z,0.73
2022-11-29T08:34:22.617Z,0.78
2022-11-29T08:36:51.496Z,0.85
2022-11-29T08:39:18.985Z,0.84
2022-11-29T08:41:46.435Z,0.77
2022-11-29T08:44:14.109Z,0.90
2022-11-29T08:47:00.003Z,0.92
2022-11-29T08:49:28.223Z,0.96
2022-11-29T08:52:15.645Z,0.95
2022-11-29T08:54:43.858Z,1.26
2022-11-29T08:57:38.690Z,1.36
2022-11-29T08:59:59.429Z,1.52
2022-11-29T09:02:26.971Z,1.39
2022-11-29T09:04:54.565Z,1.30
2022-11-29T09:07:22.406Z,1.36
2022-11-29T09:09:50.188Z,1.57
2022-11-29T09:12:17.714Z,1.56
2022-11-29T09:14:45.801Z,1.53
2022-11-29T09:17:13.468Z,1.42
2022-11-29T09:19:40.931Z,1.55
2022-11-29T09:22:08.681Z,1.47
2022-11-29T09:24:36.364Z,1.28
2022-11-29T09:27:04.519Z,1.08
2022-11-29T09:29:32.660Z,1.28
2022-11-29T09:32:00.217Z,1.31
2022-11-29T09:34:27.708Z,1.30
2022-11-29T09:36:55.428Z,1.27
2022-11-29T09:39:23.031Z,1.14
2022-11-29T09:42:02.355Z,1.24
2022-11-29T09:44:41.095Z,1.44
2022-11-29T09:47:31.906Z,1.57
2022-11-29T09:50:24.234Z,1.33
2022-11-29T09:53:10.618Z,1.75
2022-11-29T09:56:08.813Z,1.59
2022-11-29T09:58:49.357Z,1.89
2022-11-29T10:01:26.938Z,2.28
2022-11-29T10:04:03.035Z,2.38
2022-11-29T10:06:41.943Z,2.15
2022-11-29T10:09:17.862Z,1.97
2022-11-29T10:11:54.101Z,2.19
2022-11-29T10:14:27.421Z,2.14
2022-11-29T10:17:08.266Z,2.19
2022-11-29T10:19:40.200Z,2.08
2022-11-29T10:22:10.476Z,1.94
2022-11-29T10:24:40.187Z,1.82
2022-11-29T10:27:19.621Z,1.99
2022-11-29T10:29:52.971Z,1.95
2022-11-29T10:32:23.252Z,1.71
2022-11-29T10:34:52.105Z,1.76
2022-11-29T10:37:21.750Z,1.97
2022-11-29T10:40:04.463Z,1.80
2022-11-29T10:42:48.872Z,1.62
2022-11-29T10:45:40.316Z,1.65
2022-11-29T10:48:18.033Z,1.72
2022-11-29T10:50:53.432Z,1.78
2022-11-29T10:53:37.562Z,2.15
2022-11-29T10:56:22.501Z,2.06
2022-11-29T10:59:22.916Z,1.99
2022-11-29T11:01:51.717Z,1.83
2022-11-29T11:04:45.222Z,1.78
2022-11-29T11:07:39.538Z,1.78
2022-11-29T11:10:27.270Z,1.63
2022-11-29T11:13:20.878Z,1.67
2022-11-29T11:15:48.408Z,1.94
2022-11-29T11:18:22.086Z,2.23
2022-11-29T11:21:10.938Z,2.46
2022-11-29T11:23:59.532Z,2.34
2022-11-29T11:26:28.180Z,1.87
2022-11-29T11:28:59.707Z,1.87
2022-11-29T11:31:27.080Z,2.00
2022-11-29T11:33:54.972Z,1.82
2022-11-29T11:36:25.668Z,2.02
2022-11-29T11:38:56.558Z,2.16
2022-11-29T11:41:46.946Z,2.47
2022-11-29T11:44:46.418Z,2.52
2022-11-29T11:47:16.980Z,2.64
2022-11-29T11:49:50.105Z,2.39
2022-11-29T11:52:23.873Z,2.70
2022-11-29T11:54:55.860Z,2.77
2022-11-29T11:57:26.217Z,2.68
2022-11-29T12:00:02.025Z,2.72
2022-11-29T12:02:40.841Z,2.65
2022-11-29T12:05:17.361Z,2.15
2022-11-29T12:08:13.658Z,2.03
2022-11-29T12:10:41.949Z,2.22
2022-11-29T12:13:19.730Z,1.87
2022-11-29T12:15:49.968Z,2.07
2022-11-29T12:18:46.812Z,2.07
2022-11-29T12:21:21.962Z,1.89
2022-11-29T12:23:58.775Z,1.58
2022-11-29T12:26:59.728Z,1.82
2022-11-29T12:29:22.396Z,1.78
2022-11-29T12:32:14.732Z,1.66
2022-11-29T12:35:27.272Z,1.76
2022-11-29T12:38:03.121Z,1.69
2022-11-29T12:40:51.912Z,1.67
2022-11-29T12:43:38.346Z,1.80
2022-11-29T12:46:15.825Z,1.71
2022-11-29T12:48:49.344Z,1.80
2022-11-29T12:51:28.424Z,1.90
2022-11-29T12:54:22.585Z,1.90
2022-11-29T12:57:22.444Z,1.92
2022-11-29T13:00:07.673Z,1.77
2022-11-29T13:03:15.153Z,1.98
2022-11-29T13:06:16.409Z,2.16
2022-11-29T13:09:16.876Z,1.91
2022-11-29T13:12:01.971Z,1.88
2022-11-29T13:15:01.382Z,1.80
2022-11-29T13:17:42.514Z,1.89
2022-11-29T13:20:41.089Z,1.97
2022-11-29T13:23:20.759Z,2.12
2022-11-29T13:25:52.362Z,2.09
2022-11-29T13:28:27.701Z,2.16
2022-11-29T13:31:00.881Z,2.43
2022-11-29T13:33:50.106Z,2.37
2022-11-29T13:37:03.131Z,2.33
2022-11-29T13:39:36.989Z,2.37
2022-11-29T13:42:15.909Z,2.15
2022-11-29T13:45:35.069Z,2.25
2022-11-29T13:48:28.102Z,2.36
2022-11-29T13:50:57.804Z,2.40
2022-11-29T13:53:46.843Z,2.57
2022-11-29T13:56:29.733Z,2.66
2022-11-29T13:58:58.979Z,2.64
2022-11-29T14:01:27.972Z,2.14
2022-11-29T14:04:06.160Z,1.89
2022-11-29T14:06:38.845Z,2.03
2022-11-29T14:09:25.596Z,1.93
2022-11-29T14:12:02.026Z,1.93
2022-11-29T14:14:39.690Z,1.81
2022-11-29T14:17:35.895Z,1.69
2022-11-29T14:20:22.417Z,1.65
2022-11-29T14:23:05.313Z,1.82
2022-11-29T14:25:51.638Z,1.84
2022-11-29T14:28:21.813Z,1.86
2022-11-29T14:30:57.370Z,1.78
2022-11-29T14:33:38.369Z,1.91
2022-11-29T14:36:15.311Z,1.98
2022-11-29T14:38:45.704Z,1.83
2022-11-29T14:41:28.895Z,1.89
2022-11-29T14:44:20.101Z,2.06
2022-11-29T14:46:50.560Z,2.20
2022-11-29T14:49:23.837Z,2.05
2022-11-29T14:52:17.177Z,2.04
2022-11-29T14:55:28.694Z,2.00
2022-11-29T14:58:06.189Z,1.87
2022-11-29T15:00:48.865Z,1.87
2022-11-29T15:03:16.467Z,1.76
2022-11-29T15:05:47.068Z,1.76
2022-11-29T15:08:27.019Z,1.73
2022-11-29T15:11:10.012Z,1.74
2022-11-29T15:13:49.769Z,1.67
2022-11-29T15:16:36.435Z,1.53
2022-11-29T15:19:19.188Z,1.52
2022-11-29T15:22:31.385Z,1.58
2022-11-29T15:25:11.955Z,1.56
2022-11-29T15:27:51.165Z,1.62
2022-11-29T15:30:20.482Z,1.79
2022-11-29T15:32:48.249Z,1.87
2022-11-29T15:35:19.502Z,1.88
2022-11-29T15:37:48.913Z,1.90
2022-11-29T15:40:17.837Z,1.98
2022-11-29T15:42:51.385Z,1.98
2022-11-29T15:45:35.683Z,1.89
2022-11-29T15:48:24.751Z,1.69
2022-11-29T15:51:00.873Z,1.86
2022-11-29T15:53:45.225Z,1.87
2022-11-29T15:56:25.278Z,1.91
2022-11-29T15:58:59.531Z,2.00
2022-11-29T16:01:27.300Z,2.10
2022-11-29T16:03:57.103Z,1.75
2022-11-29T16:06:41.551Z,1.84
2022-11-29T16:09:16.757Z,1.92
2022-11-29T16:11:45.191Z,1.92
2022-11-29T16:14:18.396Z,1.67
2022-11-29T16:16:48.432Z,1.47
2022-11-29T16:19:28.752Z,1.44
2022-11-29T16:22:14.577Z,1.29
2022-11-29T16:24:53.834Z,1.27
2022-11-29T16:27:22.721Z,1.26
2022-11-29T16:29:55.050Z,1.29
2022-11-29T16:32:30.089Z,1.27
2022-11-29T16:35:17.568Z,1.42
2022-11-29T16:37:46.709Z,1.34
2022-11-29T16:40:22.431Z,1.26
2022-11-29T16:43:21.140Z,1.31
2022-11-29T16:45:53.936Z,1.37
2022-11-29T16:48:21.888Z,1.28
2022-11-29T16:51:12.664Z,1.35
2022-11-29T16:53:49.784Z,1.41
2022-11-29T16:56:22.277Z,1.58
2022-11-29T16:59:20.590Z,1.61
2022-11-29T17:01:41.952Z,1.26
2022-11-29T17:04:09.776Z,1.55
2022-11-29T17:06:37.523Z,1.66
2022-11-29T17:09:05.763Z,1.62
2022-11-29T17:11:33.624Z,1.37
2022-11-29T17:14:01.051Z,1.35
2022-11-29T17:16:29.269Z,1.35
2022-11-29T17:18:56.768Z,1.32
2022-11-29T17:21:26.214Z,1.16
2022-11-29T17:23:54.485Z,1.27
2022-11-29T17:26:23.342Z,1.23
2022-11-29T17:28:52.028Z,1.21
2022-11-29T17:31:22.788Z,1.12
2022-11-29T17:33:51.352Z,1.07
2022-11-29T17:36:20.680Z,0.97
2022-11-29T17:38:49.069Z,0.88
2022-11-29T17:41:22.080Z,0.84
2022-11-29T17:43:51.880Z,0.85
2022-11-29T17:46:28.465Z,0.78
2022-11-29T17:48:58.333Z,0.89
2022-11-29T17:51:51.032Z,0.78
2022-11-29T17:54:14.820Z,1.00
2022-11-29T17:56:42.229Z,0.89
2022-11-29T17:59:10.048Z,0.69
2022-11-29T18:01:38.012Z,0.79
2022-11-29T18:04:06.930Z,0.69
2022-11-29T18:06:37.284Z,0.56
2022-11-29T18:09:07.549Z,0.66
2022-11-29T18:11:45.327Z,0.67
2022-11-29T18:14:20.257Z,0.70
2022-11-29T18:16:48.632Z,0.74
2022-11-29T18:19:18.978Z,0.79
2022-11-29T18:21:47.560Z,0.98
2022-11-29T18:24:15.516Z,0.70
2022-11-29T18:26:43.316Z,0.75
2022-11-29T18:29:11.413Z,0.77
2022-11-29T18:31:42.273Z,0.77
2022-11-29T18:34:11.634Z,0.76
2022-11-29T18:36:48.535Z,0.75
2022-11-29T18:39:19.020Z,0.79
2022-11-29T18:41:48.622Z,0.92
2022-11-29T18:44:19.144Z,0.79
2022-11-29T18:46:47.437Z,0.89
2022-11-29T18:49:16.979Z,0.88
2022-11-29T18:51:46.381Z,0.80
2022-11-29T18:54:16.024Z,0.84
2022-11-29T18:56:45.166Z,0.72
2022-11-29T18:59:17.329Z,0.69
2022-11-29T19:01:48.083Z,0.73
2022-11-29T19:04:18.935Z,0.72
2022-11-29T19:06:47.325Z,0.73
2022-11-29T19:09:22.402Z,0.77
2022-11-29T19:11:50.751Z,0.76
2022-11-29T19:14:19.391Z,0.77
2022-11-29T19:16:49.030Z,0.74
2022-11-29T19:19:18.757Z,0.72
2022-11-29T19:21:47.268Z,0.84
2022-11-29T19:24:17.720Z,0.86
2022-11-29T19:26:47.437Z,0.87
2022-11-29T19:29:16.285Z,0.81
2022-11-29T19:31:44.093Z,0.96
2022-11-29T19:34:11.994Z,0.89
2022-11-29T19:36:43.418Z,0.84
2022-11-29T19:39:17.159Z,0.83
2022-11-29T19:41:46.923Z,0.87
2022-11-29T19:44:15.139Z,1.01
2022-11-29T19:46:46.016Z,0.91
2022-11-29T19:49:15.052Z,0.83
2022-11-29T19:51:43.276Z,0.87
2022-11-29T19:54:12.056Z,0.99
2022-11-29T19:56:39.821Z,0.93
2022-11-29T19:59:08.442Z,1.02
2022-11-29T20:01:40.692Z,0.93
2022-11-29T20:04:12.334Z,0.96
2022-11-29T20:06:40.511Z,1.06
2022-11-29T20:09:09.308Z,1.07
2022-11-29T20:11:37.500Z,1.14
2022-11-29T20:14:07.461Z,1.12
2022-11-29T20:16:37.917Z,1.15
2022-11-29T20:19:15.012Z,1.06
2022-11-29T20:21:45.355Z,1.25
2022-11-29T20:24:14.643Z,1.16
2022-11-29T20:26:46.179Z,1.08
2022-11-29T20:29:15.184Z,1.09
2022-11-29T20:31:50.206Z,1.12
2022-11-29T20:34:20.004Z,1.05
2022-11-29T20:36:55.241Z,1.08
2022-11-29T20:39:35.478Z,1.01
2022-11-29T20:42:46.488Z,0.94
2022-11-29T20:45:15.845Z,0.97
2022-11-29T20:47:46.359Z,1.01
2022-11-29T20:50:23.309Z,0.97
2022-11-29T20:53:16.164Z,1.04
2022-11-29T20:55:48.006Z,1.09
2022-11-29T20:58:16.828Z,1.05
2022-11-29T21:00:45.729Z,1.07
2022-11-29T21:03:17.783Z,1.12
2022-11-29T21:05:47.328Z,1.23
2022-11-29T21:08:16.270Z,1.23
2022-11-29T21:10:43.736Z,1.13
2022-11-29T21:13:13.669Z,1.13
2022-11-29T21:15:42.518Z,1.10
2022-11-29T21:18:25.207Z,1.15
2022-11-29T21:21:03.096Z,1.21
2022-11-29T21:23:46.472Z,1.16
2022-11-29T21:26:24.521Z,1.24
2022-11-29T21:29:15.692Z,1.21
2022-11-29T21:31:44.472Z,1.23
2022-11-29T21:34:12.079Z,1.38
2022-11-29T21:36:40.694Z,1.32
2022-11-29T21:39:12.901Z,1.25
2022-11-29T21:41:40.454Z,1.30
2022-11-29T21:44:08.593Z,1.32
2022-11-29T21:46:36.447Z,1.33
2022-11-29T21:49:05.006Z,1.31
2022-11-29T21:51:32.873Z,1.29
2022-11-29T21:54:01.443Z,1.32
2022-11-29T21:56:28.837Z,1.34
2022-11-29T21:58:56.624Z,1.53
2022-11-29T22:01:24.094Z,1.47
2022-11-29T22:03:53.148Z,1.43
2022-11-29T22:06:24.215Z,1.45
2022-11-29T22:08:52.119Z,1.51
2022-11-29T22:11:31.124Z,1.47
2022-11-29T22:14:16.272Z,1.54
2022-11-29T22:16:50.975Z,1.49
2022-11-29T22:19:33.149Z,1.45
2022-11-29T22:22:02.981Z,1.42
2022-11-29T22:24:34.012Z,1.57
2022-11-29T22:27:02.102Z,1.52
2022-11-29T22:29:30.465Z,1.58
2022-11-29T22:31:59.471Z,1.62
2022-11-29T22:34:27.597Z,1.59
2022-11-29T22:36:55.738Z,1.60
2022-11-29T22:39:24.066Z,1.63
2022-11-29T22:41:54.751Z,1.62
2022-11-29T22:44:24.061Z,1.65
2022-11-29T22:46:51.820Z,1.56
2022-11-29T22:49:19.583Z,1.72
2022-11-29T22:51:47.479Z,1.63
2022-11-29T22:54:16.459Z,1.76
2022-11-29T22:56:45.524Z,1.71
2022-11-29T22:59:13.272Z,1.74
2022-11-29T23:01:41.832Z,1.74
2022-11-29T23:04:11.379Z,1.82
2022-11-29T23:06:41.080Z,1.76
2022-11-29T23:09:19.873Z,1.83
2022-11-29T23:11:56.254Z,1.72
2022-11-29T23:14:24.489Z,1.74
2022-11-29T23:16:52.366Z,1.77
2022-11-29T23:19:20.719Z,1.77
2022-11-29T23:21:48.470Z,1.78
2022-11-29T23:24:16.568Z,1.87
2022-11-29T23:26:46.942Z,1.96
2022-11-29T23:29:17.383Z,1.84
2022-11-29T23:31:46.684Z,1.88
2022-11-29T23:34:14.688Z,1.91
2022-11-29T23:36:42.124Z,1.81
2022-11-29T23:39:10.060Z,1.91
2022-11-29T23:41:37.635Z,1.98
2022-11-29T23:44:05.998Z,1.91
2022-11-29T23:46:35.091Z,1.95
2022-11-29T23:49:02.637Z,1.93
2022-11-29T23:51:30.048Z,2.06
2022-11-29T23:53:57.768Z,2.09
2022-11-29T23:56:25.429Z,2.04
2022-11-29T23:58:52.848Z,2.07
